KDAY Airport Diagram

We have created a template for each of the higher traffic airports in the vZID airspace. They include KCMH, KCRW, KCVG, KDAY, KIND, KLEX and KSDF. You wil find usefull information including the airport diagram, weather, and specific airport procedures.

KDAY Weather

[Source: ADDS]
METAR
KDAY 190756Z 23007KT 2SM BR OVC005 02/02 A3011 RMK AO2 SFC VIS 4 DZE19 SLP205 P0000 T00220017 =
TAF
KDAY 190538Z 1906/2006 22006KT 2SM BR OVC005 TEMPO 1906/1910 1/4SM FG OVC003 FM191100 VRB03KT P6SM OVC250 FM191600 14005KT P6SM OVC250 FM192000 11007KT P6SM OVC090 FM200300 10008KT 4SM -RA OVC015 =

DAY Operations

Calm Wind Configuration is runways 24L and 24R

Runway 24L typically departs south and west

Runway 24R typicall departs north and east

 

JSN Epic template designed by JoomlaShine.com